WetterOnline ( https://www.wetteronline.de )

Wetter aktuell Pivigna

Aktuelles Wetter: Reschenpass (1461m)

6-stündlich | Neueste Meldungen
Ortszeit Temperatur Wetter
So, 20.09. 8:00 13.8° C bedeckt
So, 20.09. 2:00 15.4° C bedeckt
Sa, 19.09. 20:00 17.8° C wolkig
Sa, 19.09. 14:00 19.8° C leicht bewölkt
Sa, 19.09. 8:00 13.0° C wolkenlos
Sa, 19.09. 2:00 13.6° C wolkenlos
Fr, 18.09. 20:00 18.6° C leicht bewölkt
Fr, 18.09. 14:00 21.6° C leicht bewölkt
Ortszeit Temperatur Wetter
So, 20.09. 10:00 14.0° C wolkig
So, 20.09. 9:55 14° C bewölkt
So, 20.09. 9:00 14.0° C wolkig
So, 20.09. 8:55 14° C bewölkt
So, 20.09. 8:00 13.8° C bedeckt
So, 20.09. 7:55 14° C bedeckt
So, 20.09. 7:00 13.8° C bedeckt
So, 20.09. 6:55 14° C bedeckt
So, 20.09. 6:00 14.0° C bedeckt
Ortszeit Relative Feuchte Sichtweite
So, 20.09. 8:00 90% 10 km
So, 20.09. 2:00 100% 10 km
Sa, 19.09. 20:00 89% 12 km
Sa, 19.09. 14:00 68% 20 km
Sa, 19.09. 8:00 100% 15 km
Sa, 19.09. 2:00 97% 15 km
Fr, 18.09. 20:00 78% 20 km
Fr, 18.09. 14:00 65% 30 km
Ortszeit Relative Feuchte Sichtweite
So, 20.09. 10:00 90% 16 km
So, 20.09. 9:55 88% >10 km
So, 20.09. 9:00 91% 14 km
So, 20.09. 8:55 94% >10 km
So, 20.09. 8:00 90% 10 km
So, 20.09. 7:55 88% >10 km
So, 20.09. 7:00 100% 8 km
So, 20.09. 6:55 100% 8 km
So, 20.09. 6:00 100% 8 km
Ortszeit Niederschlagsmenge Niederschlagsart
So, 20.09. 8:00 0.0 l/m2 in 12 Std. -
So, 20.09. 2:00 0.0 l/m2 in 6 Std. -
Sa, 19.09. 20:00 0.0 l/m2 in 12 Std. -
Sa, 19.09. 14:00 0.0 l/m2 in 6 Std. -
Sa, 19.09. 8:00 0.0 l/m2 in 12 Std. -
Sa, 19.09. 2:00 0.0 l/m2 in 6 Std. -
Fr, 18.09. 20:00 0.0 l/m2 in 12 Std. -
Fr, 18.09. 14:00 0.0 l/m2 in 6 Std. -
Ortszeit Niederschlagsmenge Niederschlagsart
So, 20.09. 10:00 keine Meldung -
So, 20.09. 9:55 keine Meldung -
So, 20.09. 9:00 keine Meldung -
So, 20.09. 8:55 keine Meldung -
So, 20.09. 8:00 keine Meldung -
So, 20.09. 7:55 keine Meldung -
So, 20.09. 7:00 keine Meldung -
So, 20.09. 6:55 keine Meldung -
So, 20.09. 6:00 keine Meldung -
Ortszeit Stärke Spitze Richtung
km/h Bft. km/h Grad Sektor
So, 20.09. 8:00 0 0 - - -
So, 20.09. 2:00 7 2 - 170° S
Sa, 19.09. 20:00 7 2 - 180° S
Sa, 19.09. 14:00 13 3 - 200° S
Sa, 19.09. 8:00 6 1 - 50° NO
Sa, 19.09. 2:00 0 0 - - -
Fr, 18.09. 20:00 6 1 - 40° NO
Fr, 18.09. 14:00 13 3 - 190° S
Ortszeit Stärke Spitze Richtung
km/h Bft. km/h Grad Sektor
So, 20.09. 10:00 0 0 - - -
So, 20.09. 9:55 0 0 - - -
So, 20.09. 9:00 0 0 - - -
So, 20.09. 8:55 0 0 - - -
So, 20.09. 8:00 0 0 - - -
So, 20.09. 7:55 0 0 - - -
So, 20.09. 7:00 0 0 - - -
So, 20.09. 6:55 0 0 - - -
So, 20.09. 6:00 0 0 - - -
Ortszeit Untergrenze Bedeckung Gattung
total tief tief mittel hoch
So, 20.09. 8:00 450 m 8/8 8/8 St - -
So, 20.09. 2:00 300 m 8/8 8/8 St - -
Sa, 19.09. 20:00 750 m 7/8 3/8 Cu Ac -
Sa, 19.09. 14:00 750 m 3/8 3/8 Cu - -
Sa, 19.09. 8:00 - 0/8 0/8 - - -
Sa, 19.09. 2:00 - 0/8 0/8 - - -
Fr, 18.09. 20:00 900 m 2/8 2/8 Cu - -
Fr, 18.09. 14:00 750 m 3/8 3/8 Cu - -
Ortszeit Bedeckungsgrad in Achtel und Wolkenuntergrenze
So, 20.09. 10:00 6(600m)
So, 20.09. 9:55 5-7(600m)
So, 20.09. 9:00 6(450m)
So, 20.09. 8:55 5-7(450m)
So, 20.09. 8:00 8(450m)
So, 20.09. 7:55 8(450m)
So, 20.09. 7:00 8(300m)
So, 20.09. 6:55 8(300m)
So, 20.09. 6:00 8(300m)
Ortszeit Stationsdruck (hPa) Tendenz (hPa in 3 Std.)
So, 20.09. 8:00 855 - 0,8
So, 20.09. 2:00 856 0,0
Sa, 19.09. 20:00 856 - 0,1
Sa, 19.09. 14:00 857 - 1,0
Sa, 19.09. 8:00 858 - 2,3
Sa, 19.09. 2:00 860 + 0,2
Fr, 18.09. 20:00 858 - 0,1
Fr, 18.09. 14:00 859 - 0,8
Ortszeit Stationsdruck (hPa) Tendenz (hPa in 3 Std.)
So, 20.09. 10:00 855 - 0,1
So, 20.09. 9:55 - keine Meldung
So, 20.09. 9:00 855 - 0,5
So, 20.09. 8:55 - keine Meldung
So, 20.09. 8:00 855 - 0,8
So, 20.09. 7:55 - keine Meldung
So, 20.09. 7:00 855 - 0,8
So, 20.09. 6:55 - keine Meldung
So, 20.09. 6:00 855 - 0,4
Ortszeit Schneehöhe (cm)
So, 20.09. 8:00 0
So, 20.09. 2:00 -
Sa, 19.09. 20:00 -
Sa, 19.09. 14:00 -
Sa, 19.09. 8:00 0
Sa, 19.09. 2:00 -
Fr, 18.09. 20:00 -
Fr, 18.09. 14:00 -
Ortszeit Schneehöhe (cm)
So, 20.09. 10:00 -
So, 20.09. 9:55 -
So, 20.09. 9:00 -
So, 20.09. 8:55 -
So, 20.09. 8:00 0
So, 20.09. 7:55 -
So, 20.09. 7:00 -
So, 20.09. 6:55 -
So, 20.09. 6:00 -
Link zu dieser Seite / Seite empfehlen

Das Wetter in ...